This is the latest recevied weather packets stored in our database for station/object AA7F. If no packets are shown the sender has not sent any weather packets the latest 10 day(s).
| Time | Temp. | Humidity | Pressure | Rain* | Wind** | Luminosity | Snow |
|---|---|---|---|---|---|---|---|
| 1777704042 | 12.22° C | 67% | 1014.8 hPa | 0 mm | - | 0 W/m² | - |
| 1777703740 | 13.89° C | 62% | 1014.8 hPa | 0 mm | - | 0 W/m² | - |
| 1777703437 | 15° C | 57% | 1014.7 hPa | 0 mm | - | 0 W/m² | - |
| 1777703134 | 15° C | 55% | 1014.8 hPa | 0 mm | - | 0 W/m² | - |
| 1777702832 | 15° C | 54% | 1014.7 hPa | 0 mm | - | 0 W/m² | - |
| 1777702530 | 12.78° C | 61% | 1014.7 hPa | 0 mm | - | 0 W/m² | - |
| 1777702227 | 12.22° C | 66% | 1014.8 hPa | 0 mm | - | 0 W/m² | - |
| 1777701922 | 12.22° C | 66% | 1014.6 hPa | 0 mm | - | 0 W/m² | - |
| 1777701619 | 12.78° C | 65% | 1014.7 hPa | 0 mm | - | 0 W/m² | - |
| 1777701316 | 12.78° C | 63% | 1014.6 hPa | 0 mm | - | 0 W/m² | - |
| 1777701015 | 13.89° C | 62% | 1014.6 hPa | 0 mm | - | 0 W/m² | - |
| 1777700713 | 13.89° C | 62% | 1014.6 hPa | 0 mm | - | 0 W/m² | - |
| 1777700410 | 15° C | 55% | 1014.5 hPa | 0 mm | - | 0 W/m² | - |
| 1777700107 | 15° C | 55% | 1014.7 hPa | 0 mm | - | 0 W/m² | - |
| 1777699805 | 13.33° C | 58% | 1014.6 hPa | 0 mm | - | 0 W/m² | - |
| 1777699503 | 13.89° C | 61% | 1014.6 hPa | 0 mm | - | 0 W/m² | - |
| 1777699201 | 14.44° C | 59% | 1014.6 hPa | 0 mm | - | 0 W/m² | - |
| 1777698899 | 14.44° C | 59% | 1014.7 hPa | 0 mm | - | 0 W/m² | - |
| 1777698595 | 15° C | 57% | 1014.5 hPa | 0 mm | - | 0 W/m² | - |
| 1777698292 | 15.56° C | 54% | 1014.6 hPa | 0 mm | - | 0 W/m² | - |
| 1777697989 | 15.56° C | 57% | 1014.5 hPa | 0 mm | - | 0 W/m² | - |
| 1777697686 | 15° C | 57% | 1014.3 hPa | 0 mm | - | 0 W/m² | - |
| 1777697383 | 15° C | 58% | 1014.7 hPa | 0 mm | - | 0 W/m² | - |
| 1777697079 | 15.56° C | 56% | 1014.4 hPa | 0 mm | - | 0 W/m² | - |
| 1777696776 | 15.56° C | 55% | 1014.3 hPa | 0 mm | - | 0 W/m² | - |
* Rain latest hour (hover to see other rain measurements)
** Current wind speed in m/s (hover to see current wind gust speed)